Falls City, Idaho
Current Conditions -  °F | °C
As of 7:53 PM on Friday 24 Oct 2014 (Local Time) from KJER Reporting Station
Clear Clear  
Wind Chill: 60°   Ceiling: Unl
Heat Index: 60°   Visibility: 10mi
Dew Point: 27°   Wind: 14mph
Humidity: 28%   Direction: 40°NE
Pressure: 30.01"   Gusts: NA
Location:  42.7238°N, 114.338°W
Report Text: KJER 250153Z AUTO 04012KT 10SM CLR 16/M03 A3001 RMK AO2 SLP146 T01561028
Loading
Personal Weather Stations






























Interactive Weather Map
Tropical Storm Tracking
New forecast layout! Learn more

10-Day Weather Forecast

Advertisements
Track Severe Weather on mobile